createdAt,value
2019-01-13T00:00:40.687Z,99833.08
2019-01-13T00:05:36.575Z,99825.41
2019-01-13T00:10:32.491Z,99825.66
2019-01-13T00:15:28.398Z,99826.98
2019-01-13T00:20:24.395Z,99832.52
2019-01-13T00:25:20.457Z,99836.19
2019-01-13T00:30:19.379Z,99842.95
2019-01-13T00:35:16.548Z,99834.33
2019-01-13T00:40:17.026Z,99837.30
2019-01-13T00:45:13.805Z,99851.64
2019-01-13T00:50:14.033Z,99860.58
2019-01-13T00:55:11.636Z,99850.77
2019-01-13T01:00:14.499Z,99846.55
2019-01-13T01:05:10.516Z,99829.88
2019-01-13T01:10:09.625Z,99829.62
2019-01-13T01:15:08.637Z,99827.84
2019-01-13T01:20:08.054Z,99827.09
2019-01-13T01:25:05.960Z,99825.58
2019-01-13T01:30:05.690Z,99820.86
2019-01-13T01:35:01.966Z,99810.67
2019-01-13T01:39:57.936Z,99816.09
2019-01-13T01:44:53.855Z,99811.66
2019-01-13T01:49:50.472Z,99807.35
2019-01-13T01:54:46.457Z,99814.64
2019-01-13T01:59:42.579Z,99812.77
2019-01-13T02:04:38.513Z,99809.68
2019-01-13T02:09:34.616Z,99799.78
2019-01-13T02:14:31.141Z,99784.48
2019-01-13T02:19:33.322Z,99793.05
2019-01-13T02:24:29.199Z,99793.24
2019-01-13T02:29:25.151Z,99783.81
2019-01-13T02:34:21.687Z,99775.53
2019-01-13T02:39:17.577Z,99769.73
2019-01-13T02:44:13.485Z,99752.53
2019-01-13T02:49:10.190Z,99758.95
2019-01-13T02:54:06.204Z,99753.97
2019-01-13T02:59:02.146Z,99759.86
2019-01-13T03:03:58.057Z,99751.03
2019-01-13T03:08:53.979Z,99743.67
2019-01-13T03:13:49.905Z,99752.12
2019-01-13T03:18:47.478Z,99764.97
2019-01-13T03:23:43.582Z,99754.42
2019-01-13T03:28:39.504Z,99735.13
2019-01-13T03:33:35.411Z,99737.42
2019-01-13T03:38:31.327Z,99747.49
2019-01-13T03:43:27.529Z,99727.59
2019-01-13T03:48:23.432Z,99724.59
2019-01-13T03:53:19.338Z,99729.19
2019-01-13T03:58:15.244Z,99715.76
2019-01-13T04:03:11.145Z,99696.98
2019-01-13T04:08:07.048Z,99681.09
2019-01-13T04:13:03.621Z,99675.67
2019-01-13T04:17:59.592Z,99673.17
2019-01-13T04:22:55.537Z,99657.28
2019-01-13T04:27:51.441Z,99663.42
2019-01-13T04:32:47.340Z,99647.42
2019-01-13T04:37:43.243Z,99626.22
2019-01-13T04:42:39.144Z,99621.61
2019-01-13T04:47:35.118Z,99622.02
2019-01-13T04:52:31.025Z,99617.80
2019-01-13T04:57:26.930Z,99614.88
2019-01-13T05:02:22.863Z,99607.34
2019-01-13T05:07:18.879Z,99604.86
2019-01-13T05:12:14.778Z,99603.92
2019-01-13T05:17:10.684Z,99590.06
2019-01-13T05:22:06.687Z,99585.23
2019-01-13T05:27:02.724Z,99587.77
2019-01-13T05:31:58.632Z,99582.13
2019-01-13T05:36:54.743Z,99560.30
2019-01-13T05:41:50.625Z,99552.95
2019-01-13T05:46:46.529Z,99540.77
2019-01-13T05:51:42.619Z,99539.05
2019-01-13T05:56:38.520Z,99536.34
2019-01-13T06:01:35.038Z,99533.31
2019-01-13T06:06:30.909Z,99513.48
2019-01-13T06:11:27.032Z,99503.95
2019-01-13T06:16:22.895Z,99497.89
2019-01-13T06:21:18.799Z,99484.02
2019-01-13T06:26:14.698Z,99482.20
2019-01-13T06:31:10.601Z,99479.69
2019-01-13T06:36:06.587Z,99461.17
2019-01-13T06:41:02.940Z,99458.17
2019-01-13T06:45:58.844Z,99443.89
2019-01-13T06:50:54.816Z,99446.41
2019-01-13T06:55:50.715Z,99436.63
2019-01-13T07:00:46.701Z,99432.81
2019-01-13T07:05:42.631Z,99419.00
2019-01-13T07:10:38.630Z,99412.56
2019-01-13T07:15:34.531Z,99401.61
2019-01-13T07:20:30.465Z,99389.73
2019-01-13T07:25:26.369Z,99383.58
2019-01-13T07:30:22.436Z,99376.02
2019-01-13T07:35:18.480Z,99367.59
2019-01-13T07:40:16.999Z,99359.42
2019-01-13T07:45:15.408Z,99338.48
2019-01-13T07:50:13.610Z,99334.51
2019-01-13T07:55:15.989Z,99339.26
2019-01-13T08:00:20.899Z,99321.83
2019-01-13T08:05:16.932Z,99324.53
2019-01-13T08:10:14.043Z,99308.63
2019-01-13T08:15:18.679Z,99302.63
2019-01-13T08:20:23.386Z,99276.66
2019-01-13T08:25:19.991Z,99265.50
2019-01-13T08:30:18.177Z,99260.14
2019-01-13T08:35:14.589Z,99256.79
2019-01-13T08:40:13.997Z,99240.08
2019-01-13T08:45:10.515Z,99230.00
2019-01-13T08:50:14.908Z,99224.63
2019-01-13T08:55:12.200Z,99216.86
2019-01-13T09:00:15.260Z,99203.77
2019-01-13T09:05:11.381Z,99193.44
2019-01-13T09:10:11.238Z,99195.92
2019-01-13T09:15:11.602Z,99184.45
2019-01-13T09:20:13.863Z,99174.21
2019-01-13T09:25:10.455Z,99165.26
2019-01-13T09:30:13.819Z,99157.51
2019-01-13T09:35:10.324Z,99143.09
2019-01-13T09:40:10.131Z,99138.28
2019-01-13T09:45:10.614Z,99141.36
2019-01-13T09:50:10.749Z,99131.23
2019-01-13T09:55:12.570Z,99137.95
2019-01-13T10:00:15.095Z,99133.84
2019-01-13T10:05:11.565Z,99131.45
2019-01-13T10:10:10.262Z,99121.64
2019-01-13T10:15:09.774Z,99107.88
2019-01-13T10:20:14.352Z,99104.09
2019-01-13T10:25:10.715Z,99094.47
2019-01-13T10:30:10.375Z,99087.33
2019-01-13T10:35:10.939Z,99087.55
2019-01-13T10:40:10.862Z,99076.69
2019-01-13T10:45:10.080Z,99053.95
2019-01-13T10:50:18.700Z,99047.84
2019-01-13T10:55:15.562Z,99041.62
2019-01-13T11:00:17.915Z,99040.91
2019-01-13T11:05:13.974Z,99036.45
2019-01-13T11:10:12.886Z,99029.33
2019-01-13T11:15:11.818Z,99009.73
2019-01-13T11:20:19.835Z,99006.36
2019-01-13T11:25:16.056Z,99010.22
2019-01-13T11:30:22.643Z,98998.64
2019-01-13T11:35:20.194Z,98990.28
2019-01-13T11:40:18.867Z,98969.30
2019-01-13T11:45:14.971Z,98960.12
2019-01-13T11:50:17.234Z,98940.30
2019-01-13T11:55:15.008Z,98929.97
2019-01-13T12:00:23.803Z,98928.06
2019-01-13T12:05:19.815Z,98920.52
2019-01-13T12:10:19.873Z,98911.50
2019-01-13T12:15:17.895Z,98918.52
2019-01-13T12:20:23.781Z,98907.14
2019-01-13T12:25:21.998Z,98876.20
2019-01-13T12:30:29.360Z,98870.83
2019-01-13T12:35:26.048Z,98879.31
2019-01-13T12:40:24.357Z,98860.63
2019-01-13T12:45:21.843Z,98855.88
2019-01-13T12:50:28.676Z,98854.92
2019-01-13T12:55:24.987Z,98841.98
2019-01-13T13:00:21.346Z,98841.13
2019-01-13T13:05:18.183Z,98816.48
2019-01-13T13:10:25.209Z,98805.73
2019-01-13T13:15:21.532Z,98792.85
2019-01-13T13:20:18.784Z,98785.30
2019-01-13T13:25:14.944Z,98772.95
2019-01-13T13:30:17.177Z,98764.50
2019-01-13T13:35:13.369Z,98756.75
2019-01-13T13:40:13.203Z,98738.34
2019-01-13T13:45:09.949Z,98742.50
2019-01-13T13:50:18.545Z,98740.17
2019-01-13T13:55:15.333Z,98744.83
2019-01-13T14:00:21.440Z,98742.39
2019-01-13T14:05:17.437Z,98728.55
2019-01-13T14:10:43.187Z,98732.48
2019-01-13T14:15:39.184Z,98730.64
2019-01-13T14:20:35.189Z,98722.00
2019-01-13T14:25:31.181Z,98711.16
2019-01-13T14:30:27.292Z,98705.91
2019-01-13T14:35:23.590Z,98722.43
2019-01-13T14:40:22.056Z,98717.70
2019-01-13T14:45:20.166Z,98708.01
2019-01-13T14:50:20.159Z,98688.34
2019-01-13T14:55:16.337Z,98678.99
2019-01-13T15:00:15.648Z,98673.25
2019-01-13T15:05:12.644Z,98671.70
2019-01-13T15:10:11.977Z,98662.71
2019-01-13T15:15:10.362Z,98660.09
2019-01-13T15:20:09.807Z,98660.88
2019-01-13T15:25:08.726Z,98643.34
2019-01-13T15:30:11.217Z,98650.56
2019-01-13T15:35:07.326Z,98658.48
2019-01-13T15:40:07.027Z,98641.12
2019-01-13T15:45:07.203Z,98637.52
2019-01-13T15:50:10.163Z,98643.23
2019-01-13T15:55:06.565Z,98663.73
2019-01-13T16:00:10.571Z,98662.01
2019-01-13T16:05:06.905Z,98649.13
2019-01-13T16:10:07.372Z,98641.55
2019-01-13T16:15:07.593Z,98639.48
2019-01-13T16:20:18.727Z,98643.77
2019-01-13T16:25:15.101Z,98636.02
2019-01-13T16:30:18.966Z,98636.86
2019-01-13T16:35:15.652Z,98642.16
2019-01-13T16:40:14.441Z,98639.23
2019-01-13T16:45:13.024Z,98618.61
2019-01-13T16:50:17.165Z,98627.96
2019-01-13T16:55:13.547Z,98621.67
2019-01-13T17:00:13.338Z,98615.09
2019-01-13T17:05:11.699Z,98607.77
2019-01-13T17:10:10.899Z,98610.16
2019-01-13T17:15:12.167Z,98605.03
2019-01-13T17:20:17.454Z,98606.75
2019-01-13T17:25:22.656Z,98607.55
2019-01-13T17:30:24.416Z,98594.48
2019-01-13T17:35:21.281Z,98608.85
2019-01-13T17:40:23.549Z,98637.20
2019-01-13T17:45:26.938Z,98659.05
2019-01-13T17:50:28.440Z,98686.62
2019-01-13T17:55:27.278Z,98656.05
2019-01-13T18:00:33.168Z,98649.83
2019-01-13T18:05:31.617Z,98644.59
2019-01-13T18:10:28.277Z,98655.27
2019-01-13T18:15:25.465Z,98665.20
2019-01-13T18:20:24.277Z,98667.08
2019-01-13T18:25:22.385Z,98724.74
2019-01-13T18:30:23.293Z,98712.87
2019-01-13T18:35:22.536Z,98709.67
2019-01-13T18:40:20.791Z,98718.33
2019-01-13T18:45:17.765Z,98716.42
2019-01-13T18:50:21.588Z,98702.16
2019-01-13T18:55:18.250Z,98683.83
2019-01-13T19:00:21.652Z,98689.41
2019-01-13T19:05:21.687Z,98694.94
2019-01-13T19:10:25.976Z,98693.64
2019-01-13T19:15:23.204Z,98690.74
2019-01-13T19:20:19.925Z,98698.33
2019-01-13T19:25:17.333Z,98692.62
2019-01-13T19:30:16.157Z,98705.32
2019-01-13T19:35:15.364Z,98707.02
2019-01-13T19:40:17.889Z,98741.20
2019-01-13T19:45:16.731Z,98785.48
2019-01-13T19:50:16.549Z,98762.42
2019-01-13T19:55:17.219Z,98754.45
2019-01-13T20:00:16.932Z,98754.62
2019-01-13T20:05:12.893Z,98751.28
2019-01-13T20:10:10.995Z,98740.30
2019-01-13T20:15:12.924Z,98758.19
2019-01-13T20:20:12.023Z,98762.06
2019-01-13T20:25:10.624Z,98760.11
2019-01-13T20:30:13.533Z,98760.45
2019-01-13T20:35:09.424Z,98774.86
2019-01-13T20:40:08.526Z,98786.05
2019-01-13T20:45:08.224Z,98779.22
2019-01-13T20:50:15.233Z,98791.62
2019-01-13T20:55:13.293Z,98801.55
2019-01-13T21:00:15.584Z,98788.05
2019-01-13T21:05:13.133Z,98786.30
2019-01-13T21:10:12.199Z,98799.23
2019-01-13T21:15:11.494Z,98797.89
2019-01-13T21:20:08.987Z,98793.36
2019-01-13T21:25:10.894Z,98808.38
2019-01-13T21:30:16.603Z,98794.53
2019-01-13T21:35:12.700Z,98796.08
2019-01-13T21:40:11.289Z,98807.57
2019-01-13T21:45:13.110Z,98801.12
2019-01-13T21:50:12.010Z,98814.92
2019-01-13T21:55:10.601Z,98805.06
2019-01-13T22:00:10.125Z,98807.40
2019-01-13T22:05:07.921Z,98811.30
2019-01-13T22:10:07.619Z,98805.06
2019-01-13T22:15:05.916Z,98805.42
2019-01-13T22:20:04.820Z,98805.28
2019-01-13T22:25:00.768Z,98810.86
2019-01-13T22:29:56.659Z,98812.09
2019-01-13T22:34:52.558Z,98824.51
2019-01-13T22:39:48.456Z,98811.14
2019-01-13T22:44:44.346Z,98832.52
2019-01-13T22:49:41.120Z,98835.20
2019-01-13T22:54:36.971Z,98848.50
2019-01-13T22:59:32.901Z,98851.81
2019-01-13T23:04:28.790Z,98852.69
2019-01-13T23:09:24.694Z,98863.72
2019-01-13T23:14:20.582Z,98864.58
2019-01-13T23:19:19.504Z,98875.05
2019-01-13T23:24:15.402Z,98886.76
2019-01-13T23:29:11.300Z,98888.14
2019-01-13T23:34:07.199Z,98908.91
2019-01-13T23:39:06.414Z,98899.03
2019-01-13T23:44:02.982Z,98903.83
2019-01-13T23:49:04.299Z,98912.80
2019-01-13T23:54:00.194Z,98916.38
2019-01-13T23:58:56.222Z,98930.16
